Time,TemperatureF,DewpointF,PressureIn,WindDirection,WindDirectionDegrees,WindSpeedMPH,WindSpeedGustMPH,Humidity,HourlyPrecipIn,Conditions,Clouds,dailyrainin,SoftwareType,DateUTC
2013-03-08 01:10:00,54.0,-99.9,-100.00,ENE,69,1.0,3.0,-999,-99.99,,,-99.99,,2013-03-08 07:10:00,
2013-03-08 01:52:00,54.0,-99.9,-100.00,ENE,69,1.0,3.0,-999,-99.99,,,-99.99,,2013-03-08 07:52:00,
2013-03-08 02:02:00,54.0,-99.9,-100.00,ENE,69,1.0,3.0,-999,-99.99,,,-99.99,,2013-03-08 08:02:00,
2013-03-08 05:00:00,54.0,-99.9,-100.00,SSE,161,0.0,1.0,-999,-99.99,,,-99.99,,2013-03-08 11:00:00,
2013-03-08 05:53:00,54.0,-99.9,-100.00,SSE,161,0.0,1.0,-999,-99.99,,,-99.99,,2013-03-08 11:53:00,
2013-03-08 09:22:00,57.0,-99.9,-100.00,SSE,162,0.0,5.0,-999,-99.99,,,-99.99,,2013-03-08 15:22:00,
2013-03-08 09:32:00,64.0,-99.9,-100.00,SW,214,1.0,2.0,-999,-99.99,,,-99.99,,2013-03-08 15:32:00,
2013-03-08 09:43:00,64.0,-99.9,-100.00,SW,214,1.0,2.0,-999,-99.99,,,-99.99,,2013-03-08 15:43:00,
2013-03-08 09:53:00,64.0,-99.9,-100.00,SW,214,1.0,2.0,-999,-99.99,,,-99.99,,2013-03-08 15:53:00,
2013-03-08 10:00:00,70.0,-99.9,-100.00,SE,140,4.0,4.0,-999,-99.99,,,-99.99,,2013-03-08 16:00:00,
2013-03-08 10:52:00,70.0,-99.9,-100.00,SE,140,4.0,4.0,-999,-99.99,,,-99.99,,2013-03-08 16:52:00,
2013-03-08 11:22:00,73.0,-99.9,-100.00,South,177,2.0,5.0,-999,-99.99,,,-99.99,,2013-03-08 17:22:00,
2013-03-08 11:32:00,73.0,-99.9,-100.00,South,177,2.0,5.0,-999,-99.99,,,-99.99,,2013-03-08 17:32:00,
2013-03-08 11:42:00,73.0,-99.9,-100.00,South,177,2.0,5.0,-999,-99.99,,,-99.99,,2013-03-08 17:42:00,
2013-03-08 13:10:00,78.0,-99.9,-100.00,East,85,2.0,4.0,-999,-99.99,,,-99.99,,2013-03-08 19:10:00,
2013-03-08 13:52:00,78.0,-99.9,-100.00,East,85,2.0,4.0,-999,-99.99,,,-99.99,,2013-03-08 19:52:00,
2013-03-08 14:02:00,78.0,-99.9,-100.00,East,85,2.0,4.0,-999,-99.99,,,-99.99,,2013-03-08 20:02:00,
2013-03-08 14:22:00,79.0,-99.9,-100.00,ESE,105,0.0,4.0,-999,-99.99,,,-99.99,,2013-03-08 20:22:00,
2013-03-08 14:32:00,79.0,-99.9,-100.00,ESE,105,0.0,4.0,-999,-99.99,,,-99.99,,2013-03-08 20:32:00,
2013-03-08 15:40:00,86.0,-99.9,-100.00,SW,228,6.0,8.0,-999,-99.99,,,-99.99,,2013-03-08 21:40:00,
2013-03-08 16:22:00,86.0,-99.9,-100.00,SW,228,6.0,8.0,-999,-99.99,,,-99.99,,2013-03-08 22:22:00,
2013-03-08 16:32:00,86.0,-99.9,-100.00,SW,228,6.0,8.0,-999,-99.99,,,-99.99,,2013-03-08 22:32:00,
2013-03-08 17:02:00,83.0,-99.9,-100.00,WSW,243,9.0,9.0,-999,-99.99,,,-99.99,,2013-03-08 23:02:00,
2013-03-08 17:12:00,83.0,-99.9,-100.00,WSW,243,9.0,9.0,-999,-99.99,,,-99.99,,2013-03-08 23:12:00,
2013-03-08 18:10:00,82.0,-99.9,-100.00,SSW,202,4.0,5.0,-999,-99.99,,,-99.99,,2013-03-09 00:10:00,
2013-03-08 18:52:00,82.0,-99.9,-100.00,SSW,202,4.0,5.0,-999,-99.99,,,-99.99,,2013-03-09 00:52:00,
2013-03-08 19:02:00,82.0,-99.9,-100.00,SSW,202,4.0,5.0,-999,-99.99,,,-99.99,,2013-03-09 01:02:00,
2013-03-08 21:32:00,75.0,-99.9,-100.00,South,179,2.0,4.0,-999,-99.99,,,-99.99,,2013-03-09 03:32:00,
2013-03-08 21:42:00,75.0,-99.9,-100.00,South,179,2.0,4.0,-999,-99.99,,,-99.99,,2013-03-09 03:42:00,
2013-03-08 21:52:00,75.0,-99.9,-100.00,South,179,2.0,4.0,-999,-99.99,,,-99.99,,2013-03-09 03:52:00,
2013-03-08 23:30:00,64.0,-99.9,-100.00,ENE,73,2.0,3.0,-999,-99.99,,,-99.99,,2013-03-09 05:30:00,